South Base, Georgia
Current Conditions -  °F | °C
As of 3:58 AM on Friday 24 Oct 2014 (Local Time) from KWRB Reporting Station
Clear Clear  
Wind Chill: 48°   Ceiling: Unl
Heat Index: 48°   Visibility: 10mi
Dew Point: 46°   Wind: 2mph
Humidity: 94%   Direction: 340°NNW
Pressure: 30.02"   Gusts: NA
Location:  32.6187°N, 83.5735°W
Report Text: KWRB 240758Z AUTO 34002KT 10SM CLR 09/08 A3002 RMK AO2 SLP167 T00880079
Loading
Personal Weather Stations






























Interactive Weather Map
Tropical Storm Tracking
New forecast layout! Learn more

10-Day Weather Forecast

Advertisements
Track Severe Weather on mobile